Time;durP1;ratioP1;P1;durP2;ratioP2;P2;SDS_P1;SDS_P2;PMS_P1;PMS_P2;Temp;Humidity;BMP_temperature;BMP_pressure;BME280_temperature;BME280_humidity;BME280_pressure;Samples;Min_cycle;Max_cycle;Signal;HPM_P1;HPM_P2
2022/09/20 00:02:36;;;;;;;2.08;1.12;;;;;;;9.32;100.00;100345.63;5557445;32;33973;-67
2022/09/20 00:05:41;;;;;;;2.80;1.58;;;;;;;9.37;100.00;100354.72;5570835;32;34602;-67
2022/09/20 00:08:44;;;;;;;2.12;1.30;;;;;;;9.37;100.00;100340.66;5570753;32;34073;-67
2022/09/20 00:11:47;;;;;;;2.90;1.55;;;;;;;9.40;100.00;100342.97;5570670;32;34646;-67
2022/09/20 00:14:50;;;;;;;4.82;1.40;;;;;;;9.39;100.00;100341.34;5569742;32;34297;-67
2022/09/20 00:17:52;;;;;;;3.20;1.55;;;;;;;9.40;100.00;100342.97;5569811;32;33978;-67
2022/09/20 00:20:55;;;;;;;1.42;1.27;;;;;;;9.36;100.00;100342.47;5569814;32;33868;-67
2022/09/20 00:23:58;;;;;;;3.03;1.25;;;;;;;9.37;100.00;100346.78;5569791;32;34641;-67
2022/09/20 00:27:02;;;;;;;2.58;1.40;;;;;;;9.31;100.00;100342.13;5569636;32;34016;-69
2022/09/20 00:30:06;;;;;;;3.85;1.60;;;;;;;9.30;100.00;100344.94;5569661;32;34074;-67
2022/09/20 00:33:08;;;;;;;1.50;1.30;;;;;;;9.28;100.00;100339.81;5555808;32;32373;-67
2022/09/20 00:36:11;;;;;;;2.25;1.50;;;;;;;9.21;100.00;100345.91;5569735;32;34019;-68
2022/09/20 00:39:15;;;;;;;2.70;1.62;;;;;;;9.26;100.00;100338.31;5569569;32;33998;-68
2022/09/20 00:42:18;;;;;;;2.28;1.50;;;;;;;9.23;100.00;100339.47;5570170;32;33986;-67
2022/09/20 00:45:26;;;;;;;1.77;1.50;;;;;;;9.19;100.00;100332.84;5570430;32;34881;-67
2022/09/20 00:48:31;;;;;;;1.77;1.50;;;;;;;9.14;100.00;100330.69;5570415;32;34678;-67
2022/09/20 00:51:39;;;;;;;2.75;1.70;;;;;;;9.20;100.00;100334.47;5570799;32;34025;-67
2022/09/20 00:54:42;;;;;;;2.15;1.45;;;;;;;9.16;100.00;100336.63;5556650;32;33974;-68
2022/09/20 00:57:46;;;;;;;1.30;1.20;;;;;;;9.17;100.00;100348.03;5570346;32;33910;-68
2022/09/20 01:00:53;;;;;;;2.83;1.40;;;;;;;9.12;100.00;100337.09;5570236;32;34746;-67
2022/09/20 01:03:57;;;;;;;2.55;1.42;;;;;;;9.01;100.00;100348.78;5570569;32;35263;-67
2022/09/20 01:07:03;;;;;;;1.80;1.30;;;;;;;9.00;100.00;100338.37;5570168;32;33865;-67
2022/09/20 01:10:06;;;;;;;2.10;1.30;;;;;;;8.94;100.00;100339.84;5570576;32;34604;-67
2022/09/20 01:13:08;;;;;;;2.47;1.40;;;;;;;8.97;100.00;100346.63;5556370;32;33928;-67
2022/09/20 01:16:13;;;;;;;2.25;1.23;;;;;;;9.00;100.00;100355.09;5569955;32;34208;-68
2022/09/20 01:19:34;;;;;;;1.30;1.20;;;;;;;9.03;100.00;100349.47;5570119;32;34107;-67
2022/09/20 01:23:01;;;;;;;1.80;1.20;;;;;;;9.12;100.00;100339.75;5570112;32;33952;-68
2022/09/20 01:26:39;;;;;;;2.95;1.20;;;;;;;9.16;100.00;100341.09;5570073;32;34287;-69
2022/09/20 01:29:48;;;;;;;1.98;1.15;;;;;;;9.21;100.00;100351.19;5569841;32;34717;-69
2022/09/20 01:32:56;;;;;;;2.42;1.10;;;;;;;9.19;100.00;100355.81;5569991;32;33986;-68
2022/09/20 01:36:04;;;;;;;1.98;1.08;;;;;;;9.18;100.00;100341.75;5569877;32;34611;-68
2022/09/20 01:39:41;;;;;;;2.00;1.10;;;;;;;9.20;100.00;100342.41;5569284;32;33862;-67
2022/09/20 01:42:55;;;;;;;2.15;1.20;;;;;;;9.18;100.00;100348.87;5569643;32;33981;-67
2022/09/20 01:46:09;;;;;;;3.80;1.00;;;;;;;9.29;100.00;100354.72;5569317;32;34153;-69
2022/09/20 01:49:40;;;;;;;1.92;1.17;;;;;;;9.34;100.00;100348.94;5569595;32;34133;-66
2022/09/20 01:53:07;;;;;;;2.58;1.10;;;;;;;9.42;100.00;100360.38;5569130;32;34002;-69
2022/09/20 01:56:19;;;;;;;1.70;1.30;;;;;;;9.45;100.00;100356.56;5569061;32;34080;-69
2022/09/20 01:59:33;;;;;;;2.75;1.10;;;;;;;9.42;100.00;100356.91;5569184;32;33979;-68
2022/09/20 02:03:08;;;;;;;1.42;1.02;;;;;;;9.38;100.00;100350.28;5569260;32;34093;-67
2022/09/20 02:06:16;;;;;;;2.15;1.15;;;;;;;9.26;100.00;100351.53;5568952;32;34614;-68
2022/09/20 02:09:48;;;;;;;2.30;1.20;;;;;;;9.24;100.00;100345.59;5568957;32;33981;-68
2022/09/20 02:12:54;;;;;;;1.70;1.40;;;;;;;9.20;100.00;100353.00;5534999;32;34450;-69
2022/09/20 02:16:28;;;;;;;2.85;1.23;;;;;;;9.19;100.00;100346.06;5555761;32;33287;-67
2022/09/20 02:19:45;;;;;;;2.37;1.35;;;;;;;9.11;100.00;100346.03;5569049;32;33956;-67
2022/09/20 02:23:15;;;;;;;1.90;1.40;;;;;;;9.15;100.00;100342.91;5569530;32;34860;-69
2022/09/20 02:26:37;;;;;;;;;;;;;;;9.23;100.00;100339.47;5569689;32;34011;-68
2022/09/20 02:30:05;;;;;;;2.05;1.20;;;;;;;9.19;100.00;100350.53;5569047;32;34229;-68
2022/09/20 02:33:33;;;;;;;2.75;1.30;;;;;;;9.20;100.00;100334.47;5569186;32;34003;-67
2022/09/20 02:36:51;;;;;;;2.33;1.30;;;;;;;9.20;100.00;100346.91;5568946;32;33961;-66
2022/09/20 02:40:38;;;;;;;3.05;1.55;;;;;;;9.18;100.00;100349.69;5555488;32;34006;-67
2022/09/20 02:44:15;;;;;;;1.92;1.50;;;;;;;9.11;100.00;100346.84;5561238;32;33832;-67
2022/09/20 02:47:24;;;;;;;1.50;1.40;;;;;;;9.11;100.00;100354.78;5555343;32;34681;-66
2022/09/20 02:50:57;;;;;;;1.83;1.40;;;;;;;9.12;100.00;100348.53;5568907;32;33812;-68
2022/09/20 02:54:13;;;;;;;4.35;1.37;;;;;;;9.15;100.00;100350.84;5568753;32;34620;-66
2022/09/20 02:57:37;;;;;;;1.95;1.27;;;;;;;9.15;100.00;100356.13;5568515;32;34121;-67
2022/09/20 03:01:12;;;;;;;1.42;1.33;;;;;;;9.10;100.00;100353.13;5568865;32;34014;-66
2022/09/20 03:04:39;;;;;;;4.05;1.50;;;;;;;9.11;100.00;100362.72;5537609;32;32737;-67
2022/09/20 03:08:12;;;;;;;1.62;1.40;;;;;;;9.06;100.00;100356.25;5568604;32;34078;-66
2022/09/20 03:12:01;;;;;;;2.10;1.27;;;;;;;9.06;100.00;100361.53;5568565;32;33961;-68
2022/09/20 03:15:10;;;;;;;1.77;1.30;;;;;;;9.09;100.00;100364.72;5554943;32;34588;-68
2022/09/20 03:18:32;;;;;;;4.65;1.70;;;;;;;9.04;100.00;100358.25;5568455;32;33971;-69
2022/09/20 03:21:51;;;;;;;1.90;1.20;;;;;;;9.01;100.00;100358.53;5568091;32;34445;-66
2022/09/20 03:25:03;;;;;;;4.03;1.70;;;;;;;9.07;100.00;100355.28;5568435;32;34084;-68
2022/09/20 03:28:43;;;;;;;2.03;1.40;;;;;;;9.05;100.00;100351.97;5568184;32;34359;-67
2022/09/20 03:31:51;;;;;;;2.25;1.60;;;;;;;9.05;100.00;100357.25;5538948;32;34033;-70
2022/09/20 03:35:02;;;;;;;3.00;1.65;;;;;;;9.03;100.00;100349.47;5571087;32;34635;-66
2022/09/20 03:38:40;;;;;;;2.15;1.80;;;;;;;9.08;100.00;100349.00;5570958;32;34323;-67
2022/09/20 03:41:58;;;;;;;4.68;1.90;;;;;;;9.04;100.00;100340.56;5571234;32;34099;-66
2022/09/20 03:45:00;;;;;;;2.85;1.70;;;;;;;9.03;100.00;100352.13;5570893;32;34554;-66
2022/09/20 03:48:35;;;;;;;4.55;1.70;;;;;;;9.10;100.00;100350.47;5570887;32;33946;-68
2022/09/20 03:51:59;;;;;;;2.92;1.83;;;;;;;9.06;100.00;100358.91;5571151;32;34644;-69
2022/09/20 03:55:12;;;;;;;2.62;1.70;;;;;;;9.03;100.00;100361.88;5570914;32;34564;-70
2022/09/20 03:58:51;;;;;;;1.95;1.62;;;;;;;9.01;100.00;100366.47;5557120;32;34139;-69
2022/09/20 04:02:12;;;;;;;3.83;1.67;;;;;;;8.98;100.00;100362.34;5557116;32;33560;-70
2022/09/20 04:05:24;;;;;;;3.00;2.42;;;;;;;8.92;100.00;100368.25;5570615;32;34883;-70
2022/09/20 04:09:11;;;;;;;2.40;1.60;;;;;;;8.94;100.00;100378.69;5570717;32;34452;-69
2022/09/20 04:12:25;;;;;;;3.40;1.73;;;;;;;8.94;100.00;100381.34;5570659;32;34636;-71
2022/09/20 04:15:45;;;;;;;2.70;1.70;;;;;;;8.94;100.00;100376.06;5570918;32;33889;-67
2022/09/20 04:19:10;;;;;;;3.58;1.90;;;;;;;8.93;100.00;100382.31;5570649;32;34634;-70
2022/09/20 04:22:13;;;;;;;3.92;2.17;;;;;;;8.92;100.00;100378.00;5570649;32;33882;-69
2022/09/20 04:25:22;;;;;;;3.70;2.00;;;;;;;8.96;100.00;100382.81;5556900;32;33906;-69
2022/09/20 04:28:32;;;;;;;3.12;2.00;;;;;;;8.91;100.00;100385.13;5570354;32;34064;-69
2022/09/20 04:31:46;;;;;;;3.67;2.10;;;;;;;8.88;100.00;100387.25;5556859;32;33340;-70
2022/09/20 04:38:40;;;;;;;4.43;2.30;;;;;;;8.88;100.00;100397.84;5570242;32;34179;-68
2022/09/20 04:42:17;;;;;;;4.35;2.17;;;;;;;8.87;100.00;100399.66;5543798;32;34615;-69
2022/09/20 04:45:32;;;;;;;4.35;2.10;;;;;;;8.82;100.00;100399.28;5556291;32;32636;-69
2022/09/20 04:48:51;;;;;;;3.42;2.40;;;;;;;8.69;100.00;100410.28;5570216;32;34068;-70
2022/09/20 04:52:12;;;;;;;3.17;2.15;;;;;;;8.57;100.00;100403.56;5570377;32;34001;-70
2022/09/20 04:55:37;;;;;;;3.28;2.50;;;;;;;8.52;100.00;100397.91;5556481;32;33854;-71
2022/09/20 04:58:55;;;;;;;5.18;2.70;;;;;;;8.60;100.00;100402.44;5570343;32;34048;-69
2022/09/20 05:02:26;;;;;;;5.18;2.30;;;;;;;8.68;100.00;100398.03;5570274;32;35243;-70
2022/09/20 05:05:47;;;;;;;4.37;2.65;;;;;;;8.76;100.00;100404.38;5570413;32;33926;-69
2022/09/20 05:09:12;;;;;;;3.92;2.58;;;;;;;8.89;100.00;100400.34;5556442;32;34078;-68
2022/09/20 05:12:53;;;;;;;3.33;2.42;;;;;;;8.96;100.00;100414.56;5569843;32;34697;-69
2022/09/20 05:16:17;;;;;;;5.00;2.45;;;;;;;8.98;100.00;100411.78;5554159;32;32687;-70
2022/09/20 05:19:30;;;;;;;5.68;2.60;;;;;;;9.05;100.00;100408.34;5569913;32;33783;-70
2022/09/20 05:22:44;;;;;;;3.70;2.22;;;;;;;9.07;100.00;100400.25;5569996;32;35167;-69
2022/09/20 05:26:08;;;;;;;2.70;2.20;;;;;;;9.11;100.00;100405.06;5555915;32;33427;-70
2022/09/20 05:29:28;;;;;;;3.47;2.42;;;;;;;9.16;100.00;100405.44;5569662;32;33976;-70
2022/09/20 05:32:54;;;;;;;5.93;2.03;;;;;;;9.22;100.00;100405.78;5555859;32;33105;-71
2022/09/20 05:36:16;;;;;;;4.37;2.28;;;;;;;9.24;100.00;100414.41;5569496;32;34401;-70
2022/09/20 05:39:37;;;;;;;8.18;2.22;;;;;;;9.22;100.00;100408.44;5555786;32;32898;-70
2022/09/20 05:43:00;;;;;;;5.62;2.58;;;;;;;9.20;100.00;100413.06;5569804;32;33837;-70
2022/09/20 05:46:31;;;;;;;4.30;2.10;;;;;;;9.30;100.00;100422.53;5555848;32;34885;-68
2022/09/20 05:49:49;;;;;;;3.83;1.90;;;;;;;9.36;100.00;100435.16;5556019;32;33973;-69
2022/09/20 05:52:58;;;;;;;4.60;1.90;;;;;;;9.51;100.00;100440.66;5541772;32;32896;-70
2022/09/20 05:56:06;;;;;;;3.78;2.20;;;;;;;9.60;100.00;100431.75;5569132;32;33943;-70
2022/09/20 05:59:36;;;;;;;3.97;2.10;;;;;;;9.67;100.00;100434.63;5569420;32;33932;-70
2022/09/20 06:03:04;;;;;;;4.12;2.00;;;;;;;9.73;100.00;100434.78;5569098;32;34586;-70
2022/09/20 06:06:25;;;;;;;7.97;2.30;;;;;;;9.85;100.00;100435.31;5568364;32;34035;-70
2022/09/20 06:09:54;;;;;;;4.70;1.95;;;;;;;9.82;100.00;100438.31;5569042;32;34760;-72
2022/09/20 06:13:15;;;;;;;4.35;2.10;;;;;;;9.79;100.00;100433.31;5555201;32;32917;-69
2022/09/20 06:16:34;;;;;;;3.20;2.03;;;;;;;10.01;100.00;100444.16;5554990;32;32335;-68
2022/09/20 06:20:15;;;;;;;5.03;2.17;;;;;;;9.99;100.00;100440.00;5568890;32;34693;-70
2022/09/20 06:23:18;;;;;;;3.83;2.17;;;;;;;9.86;100.00;100444.94;5568937;32;33974;-69
2022/09/20 06:26:25;;;;;;;6.12;2.37;;;;;;;10.12;100.00;100437.69;5568989;32;33902;-69
2022/09/20 06:29:33;;;;;;;4.45;2.40;;;;;;;10.26;100.00;100433.63;5554340;32;33470;-71
2022/09/20 06:33:11;;;;;;;5.60;2.08;;;;;;;10.27;100.00;100449.34;5569152;32;33842;-70
2022/09/20 06:43:47;;;;;;;4.93;2.08;;;;;;;10.92;100.00;100441.38;5554625;32;33306;-68
2022/09/20 06:46:53;;;;;;;4.43;2.30;;;;;;;11.48;100.00;100448.34;5567802;32;34177;-69
2022/09/20 06:49:57;;;;;;;2.65;1.70;;;;;;;11.74;99.38;100453.44;5567956;32;34510;-69
2022/09/20 06:53:01;;;;;;;5.93;2.03;;;;;;;12.48;96.37;100449.31;5567765;32;34040;-70
2022/09/20 06:56:16;;;;;;;3.97;1.90;;;;;;;12.24;94.55;100454.81;5568103;32;34741;-70
2022/09/20 06:59:19;;;;;;;2.67;1.55;;;;;;;12.84;90.94;100457.50;5567562;32;34101;-70
2022/09/20 07:02:21;;;;;;;6.22;1.90;;;;;;;12.22;93.02;100456.81;5567641;32;35343;-71
2022/09/20 07:05:25;;;;;;;6.03;1.50;;;;;;;12.47;92.23;100466.28;5569779;32;34327;-70
2022/09/20 07:08:27;;;;;;;6.75;1.90;;;;;;;12.70;89.47;100459.12;5570030;32;34161;-69
2022/09/20 07:11:33;;;;;;;3.45;1.30;;;;;;;13.32;87.27;100461.53;5570353;32;34178;-69
2022/09/20 07:14:36;;;;;;;2.45;1.52;;;;;;;14.02;83.53;100479.66;5570553;32;35255;-68
2022/09/20 07:17:39;;;;;;;5.00;1.60;;;;;;;13.28;84.54;100477.06;5570769;32;33997;-69
2022/09/20 07:20:41;;;;;;;4.32;1.70;;;;;;;13.53;84.89;100485.63;5570825;32;34536;-69
2022/09/20 07:23:47;;;;;;;3.20;1.50;;;;;;;12.90;86.42;100483.41;5570732;32;34261;-69
2022/09/20 07:26:56;;;;;;;2.50;1.50;;;;;;;14.01;81.72;100491.34;5570514;32;34285;-70
2022/09/20 07:29:59;;;;;;;4.32;1.48;;;;;;;14.33;79.40;100499.72;5556688;32;34717;-68
2022/09/20 07:33:01;;;;;;;2.78;1.50;;;;;;;15.60;75.30;100504.13;5570385;32;33911;-69
2022/09/20 07:36:04;;;;;;;5.37;1.50;;;;;;;15.30;73.48;100502.66;5570443;32;34647;-69
2022/09/20 07:39:07;;;;;;;2.87;1.58;;;;;;;14.80;75.18;100503.72;5570012;32;35411;-70
2022/09/20 07:42:11;;;;;;;2.78;1.60;;;;;;;14.84;74.16;100509.50;5570605;32;34708;-68
2022/09/20 07:45:14;;;;;;;2.28;1.60;;;;;;;15.17;73.84;100508.75;5556162;32;33568;-68
2022/09/20 07:48:16;;;;;;;2.85;1.50;;;;;;;15.33;72.11;100514.81;5570276;32;34037;-67
2022/09/20 07:51:20;;;;;;;2.37;1.50;;;;;;;16.36;69.23;100518.22;5570877;32;33569;-68
2022/09/20 07:54:23;;;;;;;2.90;1.50;;;;;;;16.87;66.10;100523.09;5570092;32;34602;-69
2022/09/20 07:57:25;;;;;;;2.40;1.55;;;;;;;15.55;70.04;100517.25;5569800;32;33886;-69
2022/09/20 08:00:28;;;;;;;2.62;1.37;;;;;;;16.88;65.19;100506.81;5570170;32;34555;-69
2022/09/20 08:03:33;;;;;;;2.45;1.37;;;;;;;17.04;62.49;100507.44;5556129;32;32503;-69
2022/09/20 08:06:38;;;;;;;3.33;1.30;;;;;;;15.85;67.09;100501.78;5556484;32;34571;-70
2022/09/20 08:09:41;;;;;;;2.00;1.30;;;;;;;16.29;65.48;100509.34;5569838;32;34630;-69
2022/09/20 08:12:44;;;;;;;6.28;1.42;;;;;;;16.31;65.61;100506.50;5555905;32;34734;-66
2022/09/20 08:16:09;;;;;;;2.78;1.37;;;;;;;17.35;62.56;100516.47;5557810;32;34124;-68
2022/09/20 08:19:17;;;;;;;2.15;1.35;;;;;;;17.80;59.63;100503.19;5569552;32;34136;-68
2022/09/20 08:22:22;;;;;;;4.53;1.23;;;;;;;17.25;62.01;100507.19;5543040;32;32449;-68
2022/09/20 08:25:24;;;;;;;1.70;1.20;;;;;;;18.38;57.48;100514.72;5570014;32;34812;-68
2022/09/20 08:28:28;;;;;;;2.37;1.30;;;;;;;17.00;63.06;100523.09;5570191;32;33892;-68
2022/09/20 08:31:35;;;;;;;2.12;1.25;;;;;;;16.07;66.40;100526.59;5570085;32;34791;-68
2022/09/20 08:34:39;;;;;;;3.87;1.30;;;;;;;16.80;63.00;100528.44;5556743;32;33917;-69
2022/09/20 08:37:42;;;;;;;3.75;1.42;;;;;;;15.74;66.11;100536.28;5569975;32;34246;-68
2022/09/20 08:40:46;;;;;;;5.95;1.40;;;;;;;15.87;65.86;100534.53;5556652;32;33640;-68
2022/09/20 08:43:55;;;;;;;4.40;1.40;;;;;;;16.76;62.46;100523.69;5556337;32;33228;-70
2022/09/20 08:47:20;;;;;;;3.30;1.20;;;;;;;16.19;64.86;100519.63;5570028;32;34052;-65
2022/09/20 08:50:23;;;;;;;2.62;1.27;;;;;;;15.93;67.07;100512.31;5556305;32;33240;-69
2022/09/20 08:53:28;;;;;;;2.55;1.33;;;;;;;14.62;71.65;100522.03;5570316;32;34335;-67
2022/09/20 08:56:37;;;;;;;2.72;1.37;;;;;;;14.94;69.17;100518.84;5570364;32;34325;-69
2022/09/20 08:59:40;;;;;;;2.85;1.27;;;;;;;14.31;71.74;100525.78;5556848;32;33887;-69
2022/09/20 09:02:43;;;;;;;3.00;1.65;;;;;;;14.64;71.39;100534.16;5570109;32;34644;-67
2022/09/20 09:05:56;;;;;;;2.80;1.50;;;;;;;13.81;75.55;100525.78;5556084;32;34610;-68
2022/09/20 09:08:59;;;;;;;3.00;1.45;;;;;;;13.85;74.85;100521.72;5554874;32;33178;-67
2022/09/20 09:12:03;;;;;;;2.30;1.10;;;;;;;13.77;76.10;100513.81;5555520;32;33861;-68
2022/09/20 09:15:28;;;;;;;2.28;1.10;;;;;;;14.01;73.66;100526.03;5569131;32;34074;-68
2022/09/20 09:18:36;;;;;;;2.47;1.12;;;;;;;14.04;74.51;100531.00;5569014;32;34005;-67
2022/09/20 09:21:45;;;;;;;1.75;1.23;;;;;;;14.17;72.30;100515.16;5555884;32;33953;-68
2022/09/20 09:25:05;;;;;;;3.20;1.20;;;;;;;13.93;73.05;100511.78;5543731;32;34135;-67
2022/09/20 09:28:22;;;;;;;2.83;1.17;;;;;;;14.25;73.39;100499.00;5567883;31;34175;-67
2022/09/20 09:31:25;;;;;;;3.20;1.25;;;;;;;14.37;74.07;100492.22;5568688;32;34671;-67
2022/09/20 09:34:32;;;;;;;3.83;1.40;;;;;;;14.68;72.11;100513.25;5554796;32;34093;-70
2022/09/20 09:37:35;;;;;;;3.00;1.20;;;;;;;13.88;74.55;100502.69;5569038;32;33978;-69
2022/09/20 09:40:49;;;;;;;2.95;1.30;;;;;;;13.71;74.97;100507.38;5555495;32;34635;-70
2022/09/20 09:44:24;;;;;;;2.37;1.30;;;;;;;14.25;72.78;100507.84;5569799;32;33887;-70
2022/09/20 09:47:28;;;;;;;3.12;1.30;;;;;;;13.73;75.31;100494.72;5544662;32;32869;-70
2022/09/20 09:50:33;;;;;;;4.05;1.50;;;;;;;13.40;74.98;100491.59;5568900;32;34051;-69
2022/09/20 09:53:38;;;;;;;4.15;1.20;;;;;;;13.87;75.35;100495.69;5569701;32;34346;-70
2022/09/20 09:57:22;;;;;;;3.33;1.48;;;;;;;13.86;75.65;100497.53;5569115;32;34035;-70
2022/09/20 10:00:32;;;;;;;2.25;1.30;;;;;;;14.43;74.01;100498.63;5569338;32;33985;-67
2022/09/20 10:04:05;;;;;;;2.25;1.20;;;;;;;14.59;70.99;100498.37;5542517;32;33583;-66
2022/09/20 10:07:41;;;;;;;1.90;1.00;;;;;;;15.04;69.97;100487.28;5547892;32;34067;-68
2022/09/20 10:10:59;;;;;;;1.48;1.17;;;;;;;15.57;69.37;100493.00;5555360;32;33514;-69
2022/09/20 10:14:16;;;;;;;1.77;1.12;;;;;;;15.47;67.42;100498.66;5569430;32;33992;-68
2022/09/20 10:17:38;;;;;;;2.10;1.20;;;;;;;15.45;66.30;100486.50;5569096;32;33992;-68
2022/09/20 10:20:54;;;;;;;2.00;1.00;;;;;;;15.18;67.39;100496.22;5555338;32;33139;-69
2022/09/20 10:24:15;;;;;;;1.75;1.08;;;;;;;15.01;66.49;100492.16;5569218;32;34333;-68
2022/09/20 10:27:47;;;;;;;2.45;1.45;;;;;;;14.78;68.52;100492.38;5568742;32;34584;-69
2022/09/20 10:31:20;;;;;;;5.35;1.25;;;;;;;14.41;70.32;100492.66;5569248;32;34128;-68
2022/09/20 10:34:36;;;;;;;1.73;1.20;;;;;;;14.77;70.33;100480.87;5568791;32;34500;-68
2022/09/20 10:38:13;;;;;;;2.50;1.33;;;;;;;15.22;69.21;100492.13;5568881;32;34782;-69
2022/09/20 10:45:14;;;;;;;1.98;0.88;;;;;;;15.45;65.87;100489.19;5557497;32;32467;-67
2022/09/20 10:48:51;;;;;;;3.03;1.30;;;;;;;16.01;65.68;100480.03;5570496;32;34291;-69
2022/09/20 10:51:57;;;;;;;1.58;1.00;;;;;;;16.20;63.70;100480.28;5570602;32;34740;-69
2022/09/20 10:55:02;;;;;;;1.70;1.00;;;;;;;16.35;62.75;100475.59;5570426;32;34678;-68
2022/09/20 10:58:25;;;;;;;2.45;1.00;;;;;;;20.05;52.25;100471.59;5570493;32;34281;-68
2022/09/20 11:01:30;;;;;;;1.08;0.80;;;;;;;21.38;46.23;100480.13;5570286;32;33918;-70
2022/09/20 11:04:59;;;;;;;4.85;0.80;;;;;;;22.31;42.86;100469.12;5557684;32;34013;-67
2022/09/20 11:08:02;;;;;;;1.75;0.77;;;;;;;20.98;45.08;100461.09;5556782;32;33114;-70
2022/09/20 11:11:15;;;;;;;2.75;0.85;;;;;;;22.56;43.11;100466.03;5570474;32;34396;-70
2022/09/20 11:14:30;;;;;;;3.17;1.10;;;;;;;24.36;40.66;100470.75;5569878;32;34264;-69
2022/09/20 11:18:11;;;;;;;1.92;1.02;;;;;;;23.04;42.39;100473.63;5570551;32;34033;-69
2022/09/20 11:21:19;;;;;;;1.70;0.90;;;;;;;19.94;49.50;100473.19;5538582;32;33953;-69
2022/09/20 11:24:29;;;;;;;1.12;0.82;;;;;;;17.10;57.06;100469.06;5570057;32;34731;-70
2022/09/20 11:27:41;;;;;;;3.30;1.08;;;;;;;16.53;59.56;100465.94;5543824;32;32703;-69
2022/09/20 11:30:58;;;;;;;2.53;1.10;;;;;;;16.40;60.98;100460.56;5570420;32;33987;-69
2022/09/20 11:34:10;;;;;;;1.98;1.00;;;;;;;15.27;66.59;100472.81;5556593;32;32939;-69
2022/09/20 11:37:16;;;;;;;2.10;0.90;;;;;;;14.54;68.89;100460.75;5556159;32;32503;-70
2022/09/20 11:40:26;;;;;;;2.85;1.15;;;;;;;14.53;70.25;100462.59;5569894;32;33032;-67
2022/09/20 11:43:30;;;;;;;4.55;1.30;;;;;;;15.46;67.18;100456.09;5570138;32;34489;-68
2022/09/20 11:46:51;;;;;;;2.92;0.90;;;;;;;18.09;58.88;100456.22;5569947;32;34046;-67
2022/09/20 11:50:44;;;;;;;3.62;1.10;;;;;;;22.28;46.39;100455.25;5570022;32;33921;-71
2022/09/20 11:53:46;;;;;;;2.20;0.80;;;;;;;23.50;41.61;100455.34;5564792;32;34581;-70
2022/09/20 11:56:55;;;;;;;1.92;0.80;;;;;;;21.41;44.40;100446.44;5556784;32;33935;-69
2022/09/20 12:00:06;;;;;;;1.00;0.70;;;;;;;21.99;43.51;100441.75;5570023;32;34609;-70
2022/09/20 12:03:38;;;;;;;5.62;0.80;;;;;;;24.68;37.20;100436.34;5557036;32;34633;-69
2022/09/20 12:06:42;;;;;;;1.33;0.70;;;;;;;24.87;37.90;100431.38;5570150;32;34055;-70
2022/09/20 12:09:52;;;;;;;3.60;1.02;;;;;;;27.65;31.77;100431.06;5556242;32;34677;-69
2022/09/20 12:13:04;;;;;;;2.00;0.70;;;;;;;26.55;33.16;100422.81;5555828;32;33555;-69
2022/09/20 12:16:34;;;;;;;1.08;0.70;;;;;;;24.65;36.96;100423.28;5556347;32;33662;-69
2022/09/20 12:19:37;;;;;;;1.95;0.90;;;;;;;22.12;42.11;100420.91;5569847;32;34796;-68
2022/09/20 12:22:40;;;;;;;0.90;0.70;;;;;;;19.81;47.60;100424.91;5569948;32;35267;-69
2022/09/20 12:26:00;;;;;;;2.70;0.50;;;;;;;18.74;48.94;100420.03;5555982;32;34095;-68
2022/09/20 12:29:28;;;;;;;0.85;0.50;;;;;;;19.38;46.34;100421.47;5555843;32;33656;-69
2022/09/20 12:32:36;;;;;;;1.67;0.80;;;;;;;19.69;45.88;100413.25;5535284;32;33905;-69
2022/09/20 12:35:38;;;;;;;1.27;0.80;;;;;;;20.90;44.12;100414.78;5555888;32;33336;-68
2022/09/20 12:38:47;;;;;;;1.42;1.00;;;;;;;18.96;49.43;100423.16;5569663;32;34153;-69
2022/09/20 12:42:08;;;;;;;4.18;1.20;;;;;;;19.95;47.95;100418.28;5569606;32;33882;-68
2022/09/20 12:45:18;;;;;;;5.05;0.85;;;;;;;19.12;50.27;100421.75;5570248;32;34328;-70
2022/09/20 12:48:21;;;;;;;2.42;0.70;;;;;;;18.55;52.72;100423.69;5556496;32;33851;-68
2022/09/20 12:54:53;;;;;;;3.35;0.90;;;;;;;18.50;53.13;100431.53;5570276;32;34688;-67
2022/09/20 12:58:01;;;;;;;3.05;0.70;;;;;;;18.54;51.48;100422.06;5570159;32;33888;-69
2022/09/20 13:01:04;;;;;;;1.42;0.70;;;;;;;18.16;53.52;100422.06;5570146;32;34448;-68
2022/09/20 13:04:48;;;;;;;1.05;0.60;;;;;;;18.57;50.59;100414.38;5555906;32;33211;-67
2022/09/20 13:07:58;;;;;;;1.30;0.70;;;;;;;17.36;55.00;100421.59;5543454;32;32505;-68
2022/09/20 13:11:13;;;;;;;1.85;0.90;;;;;;;16.45;60.02;100411.78;5556772;32;34608;-67
2022/09/20 13:14:21;;;;;;;1.83;0.90;;;;;;;16.22;61.30;100404.09;5556247;32;32799;-69
2022/09/20 13:17:29;;;;;;;2.65;0.93;;;;;;;16.24;62.68;100414.62;5569708;32;34288;-68
2022/09/20 13:20:33;;;;;;;2.12;0.77;;;;;;;15.98;63.40;100408.16;5569751;32;33951;-70
2022/09/20 13:23:47;;;;;;;2.45;0.88;;;;;;;15.78;64.00;100409.97;5570222;32;34608;-69
2022/09/20 13:26:52;;;;;;;1.87;0.90;;;;;;;15.22;67.58;100407.44;5555953;32;33539;-68
2022/09/20 13:30:34;;;;;;;1.05;0.88;;;;;;;15.78;64.27;100417.97;5556047;32;33034;-69
2022/09/20 13:33:36;;;;;;;2.28;0.95;;;;;;;15.55;65.61;100422.84;5543139;32;33489;-64
2022/09/20 13:36:40;;;;;;;3.10;1.20;;;;;;;15.88;63.63;100420.28;5555842;32;32560;-68
2022/09/20 13:39:42;;;;;;;2.40;1.00;;;;;;;16.52;61.47;100423.28;5569532;32;33855;-68
2022/09/20 13:42:48;;;;;;;2.37;1.15;;;;;;;17.19;59.58;100420.37;5569492;32;34569;-68
2022/09/20 13:46:12;;;;;;;2.15;0.80;;;;;;;18.98;54.25;100410.28;5569310;32;33995;-69
2022/09/20 13:49:22;;;;;;;1.33;0.88;;;;;;;18.80;54.03;100413.78;5555496;32;34232;-69
2022/09/20 13:52:29;;;;;;;1.62;0.80;;;;;;;19.86;51.35;100410.75;5569361;32;33948;-70
2022/09/20 13:55:37;;;;;;;2.87;0.90;;;;;;;22.21;45.33;100416.75;5569079;32;33949;-69
2022/09/20 13:58:41;;;;;;;2.12;0.88;;;;;;;21.81;45.93;100408.66;5569538;32;33878;-68
2022/09/20 14:01:49;;;;;;;2.35;0.90;;;;;;;24.02;39.94;100425.91;5569236;32;33998;-67
2022/09/20 14:04:55;;;;;;;1.90;0.80;;;;;;;24.00;38.97;100412.63;5569282;32;33936;-70
2022/09/20 14:07:59;;;;;;;1.42;0.80;;;;;;;21.99;43.22;100422.00;5555354;32;33195;-70
2022/09/20 14:11:27;;;;;;;3.15;0.70;;;;;;;20.96;45.51;100419.25;5568831;32;35338;-69
2022/09/20 14:14:31;;;;;;;2.10;0.90;;;;;;;20.17;47.08;100423.19;5567986;32;35417;-68
2022/09/20 14:17:35;;;;;;;2.25;0.80;;;;;;;19.37;49.91;100425.19;5568816;32;33925;-68
2022/09/20 14:20:42;;;;;;;11.27;1.10;;;;;;;18.20;52.30;100413.37;5568546;32;34124;-68
2022/09/20 14:24:05;;;;;;;1.45;0.80;;;;;;;17.40;54.65;100419.31;5555169;32;33647;-69
2022/09/20 14:27:17;;;;;;;3.10;0.70;;;;;;;15.87;55.34;100418.66;5568438;31;34329;-67
2022/09/20 14:30:29;;;;;;;0.68;0.57;;;;;;;15.07;58.99;100424.59;5568104;32;34636;-68
2022/09/20 14:33:31;;;;;;;0.82;0.60;;;;;;;14.93;59.19;100428.19;5554604;32;33900;-68
2022/09/20 14:36:34;;;;;;;1.65;0.70;;;;;;;14.65;59.95;100431.69;5568445;32;34283;-67
2022/09/20 14:39:47;;;;;;;2.60;0.77;;;;;;;14.52;61.81;100430.75;5554284;32;34092;-68
2022/09/20 14:42:54;;;;;;;4.32;0.57;;;;;;;14.66;61.43;100424.50;5554501;32;34147;-69
2022/09/20 14:46:02;;;;;;;3.33;0.80;;;;;;;14.51;61.44;100440.59;5568280;32;33916;-68
2022/09/20 14:49:23;;;;;;;1.35;0.60;;;;;;;14.29;63.65;100441.56;5554060;32;33256;-69
2022/09/20 14:52:26;;;;;;;0.90;0.62;;;;;;;14.28;63.00;100442.62;5553938;32;33632;-69
2022/09/20 14:55:33;;;;;;;2.00;0.80;;;;;;;13.91;63.77;100435.62;5567926;32;34227;-69
2022/09/20 14:59:01;;;;;;;1.58;0.65;;;;;;;14.09;62.61;100444.03;5567837;32;33889;-68
2022/09/20 15:02:09;;;;;;;2.12;0.88;;;;;;;14.16;64.89;100444.13;5553810;32;32811;-69
2022/09/20 15:05:24;;;;;;;1.37;0.80;;;;;;;14.30;64.22;100441.41;5567437;32;34063;-69
2022/09/20 15:08:27;;;;;;;1.80;0.80;;;;;;;14.04;64.33;100440.31;5567251;32;33951;-68
2022/09/20 15:11:30;;;;;;;1.55;0.80;;;;;;;14.19;65.34;100449.06;5567221;32;33938;-69
2022/09/20 15:14:33;;;;;;;2.22;0.90;;;;;;;14.10;65.91;100448.38;5553504;32;32527;-68
2022/09/20 15:17:41;;;;;;;1.75;1.00;;;;;;;14.04;67.23;100450.97;5567160;32;33946;-69
2022/09/20 15:20:44;;;;;;;2.28;0.90;;;;;;;14.12;67.47;100459.69;5553206;32;32568;-67